createdAt,value
2019-06-01T00:01:40.401Z,99.90
2019-06-01T00:04:26.158Z,99.90
2019-06-01T00:07:11.738Z,99.90
2019-06-01T00:09:57.247Z,99.90
2019-06-01T00:12:43.487Z,99.90
2019-06-01T00:15:29.119Z,99.90
2019-06-01T00:18:14.775Z,99.90
2019-06-01T00:21:00.098Z,99.90
2019-06-01T00:23:46.579Z,99.90
2019-06-01T00:26:31.387Z,99.90
2019-06-01T00:29:16.446Z,99.90
2019-06-01T00:32:01.918Z,99.90
2019-06-01T00:34:47.692Z,99.90
2019-06-01T00:37:32.767Z,99.90
2019-06-01T00:40:18.027Z,99.90
2019-06-01T00:43:03.715Z,99.90
2019-06-01T00:45:48.622Z,99.90
2019-06-01T00:48:33.758Z,99.90
2019-06-01T00:51:18.585Z,99.90
2019-06-01T00:54:03.452Z,99.90
2019-06-01T00:56:49.585Z,99.90
2019-06-01T00:59:35.839Z,99.90
2019-06-01T01:02:21.465Z,99.90
2019-06-01T01:05:09.430Z,99.90
2019-06-01T01:07:55.163Z,99.90
2019-06-01T01:10:40.166Z,99.90
2019-06-01T01:13:26.166Z,99.90
2019-06-01T01:16:11.750Z,99.90
2019-06-01T01:18:57.221Z,99.90
2019-06-01T01:21:42.662Z,99.90
2019-06-01T01:24:27.970Z,99.90
2019-06-01T01:27:13.091Z,99.90
2019-06-01T01:29:58.411Z,99.90
2019-06-01T01:32:43.639Z,99.90
2019-06-01T01:35:28.835Z,99.90
2019-06-01T01:38:13.837Z,99.90
2019-06-01T01:40:59.526Z,99.90
2019-06-01T01:43:45.184Z,99.90
2019-06-01T01:46:30.026Z,99.90
2019-06-01T01:49:15.595Z,99.90
2019-06-01T01:52:01.610Z,99.90
2019-06-01T01:54:47.330Z,99.90
2019-06-01T01:57:32.778Z,99.90
2019-06-01T02:00:46.878Z,99.90
2019-06-01T02:03:32.066Z,99.90
2019-06-01T02:06:17.200Z,99.90
2019-06-01T02:09:02.601Z,99.90
2019-06-01T02:11:47.660Z,99.90
2019-06-01T02:14:33.305Z,99.90
2019-06-01T02:17:18.782Z,99.90
2019-06-01T02:20:04.254Z,99.90
2019-06-01T02:22:49.698Z,99.90
2019-06-01T02:25:35.099Z,99.90
2019-06-01T02:28:20.590Z,99.90
2019-06-01T02:31:05.940Z,99.90
2019-06-01T02:33:51.929Z,99.90
2019-06-01T02:36:37.715Z,99.90
2019-06-01T02:39:22.815Z,99.90
2019-06-01T02:42:09.443Z,99.90
2019-06-01T02:44:55.093Z,99.90
2019-06-01T02:47:40.230Z,99.90
2019-06-01T02:50:25.282Z,99.90
2019-06-01T02:53:10.659Z,99.90
2019-06-01T02:55:56.074Z,99.90
2019-06-01T02:58:41.734Z,99.90
2019-06-01T03:01:34.152Z,99.90
2019-06-01T03:04:19.610Z,99.90
2019-06-01T03:07:06.800Z,99.90
2019-06-01T03:09:52.203Z,99.90
2019-06-01T03:12:41.694Z,99.90
2019-06-01T03:15:26.638Z,99.90
2019-06-01T03:18:12.317Z,99.90
2019-06-01T03:20:57.597Z,99.90
2019-06-01T03:23:42.774Z,99.90
2019-06-01T03:26:28.163Z,99.90
2019-06-01T03:29:14.360Z,99.90
2019-06-01T03:32:20.133Z,99.90
2019-06-01T03:34:47.259Z,99.90
2019-06-01T03:37:32.670Z,99.90
2019-06-01T03:40:23.770Z,99.90
2019-06-01T03:43:04.468Z,99.90
2019-06-01T03:45:49.805Z,99.90
2019-06-01T03:48:35.587Z,99.90
2019-06-01T03:51:21.102Z,99.90
2019-06-01T03:54:06.899Z,99.90
2019-06-01T03:56:53.246Z,99.90
2019-06-01T03:59:38.462Z,99.90
2019-06-01T04:02:32.914Z,99.90
2019-06-01T04:05:11.477Z,99.90
2019-06-01T04:07:57.022Z,99.90
2019-06-01T04:10:42.499Z,99.90
2019-06-01T04:13:27.593Z,99.90
2019-06-01T04:16:12.710Z,99.90
2019-06-01T04:18:58.285Z,99.90
2019-06-01T04:21:43.523Z,99.90
2019-06-01T04:24:28.683Z,99.90
2019-06-01T04:27:13.831Z,99.90
2019-06-01T04:29:59.287Z,99.90
2019-06-01T04:32:50.038Z,99.90
2019-06-01T04:35:31.726Z,99.90
2019-06-01T04:38:17.074Z,99.90
2019-06-01T04:41:03.497Z,99.90
2019-06-01T04:43:49.198Z,99.90
2019-06-01T04:46:34.666Z,99.90
2019-06-01T04:49:20.099Z,99.90
2019-06-01T04:52:06.651Z,99.90
2019-06-01T04:54:52.107Z,99.90
2019-06-01T04:57:37.411Z,99.90
2019-06-01T05:00:27.673Z,99.90
2019-06-01T05:03:10.827Z,99.90
2019-06-01T05:05:56.839Z,99.90
2019-06-01T05:08:41.958Z,99.90
2019-06-01T05:11:26.779Z,99.90
2019-06-01T05:14:12.180Z,99.90
2019-06-01T05:16:57.906Z,99.90
2019-06-01T05:19:43.345Z,99.90
2019-06-01T05:22:28.102Z,99.90
2019-06-01T05:25:13.690Z,99.90
2019-06-01T05:28:00.722Z,99.90
2019-06-01T05:30:46.032Z,99.90
2019-06-01T05:33:37.415Z,99.90
2019-06-01T05:36:18.917Z,99.90
2019-06-01T05:39:05.361Z,99.90
2019-06-01T05:41:50.549Z,99.90
2019-06-01T05:44:35.910Z,99.90
2019-06-01T05:47:22.443Z,99.90
2019-06-01T05:50:07.683Z,99.90
2019-06-01T05:52:53.058Z,99.90
2019-06-01T05:55:38.834Z,99.90
2019-06-01T05:58:24.102Z,99.90
2019-06-01T06:01:10.373Z,99.90
2019-06-01T06:03:55.634Z,99.90
2019-06-01T06:06:40.901Z,99.90
2019-06-01T06:09:26.306Z,99.90
2019-06-01T06:12:11.323Z,99.90
2019-06-01T06:14:56.751Z,99.90
2019-06-01T06:17:41.654Z,99.90
2019-06-01T06:20:27.030Z,99.90
2019-06-01T06:23:12.313Z,99.90
2019-06-01T06:25:58.031Z,99.90
2019-06-01T06:28:43.678Z,99.90
2019-06-01T06:31:28.539Z,99.90
2019-06-01T06:34:13.712Z,99.90
2019-06-01T06:36:58.839Z,99.90
2019-06-01T06:39:44.269Z,99.90
2019-06-01T06:42:29.807Z,99.90
2019-06-01T06:45:14.834Z,99.90
2019-06-01T06:48:00.151Z,99.90
2019-06-01T06:50:45.247Z,99.90
2019-06-01T06:53:35.101Z,99.90
2019-06-01T06:56:19.661Z,99.90
2019-06-01T06:59:05.122Z,99.90
2019-06-01T07:01:50.130Z,99.90
2019-06-01T07:04:35.275Z,99.90
2019-06-01T07:07:21.717Z,99.90
2019-06-01T07:10:07.546Z,99.90
2019-06-01T07:12:53.222Z,99.90
2019-06-01T07:15:38.286Z,99.90
2019-06-01T07:18:23.749Z,99.90
2019-06-01T07:21:09.338Z,99.90
2019-06-01T07:23:54.973Z,99.90
2019-06-01T07:26:39.896Z,99.90
2019-06-01T07:29:26.176Z,99.90
2019-06-01T07:32:11.846Z,99.90
2019-06-01T07:35:00.916Z,99.90
2019-06-01T07:37:44.780Z,99.90
2019-06-01T07:40:29.852Z,99.90
2019-06-01T07:43:14.999Z,99.90
2019-06-01T07:46:00.070Z,99.90
2019-06-01T07:48:45.714Z,99.90
2019-06-01T07:51:31.719Z,99.90
2019-06-01T07:54:17.274Z,99.60
2019-06-01T07:57:02.458Z,96.50
2019-06-01T07:59:47.450Z,97.80
2019-06-01T08:02:33.105Z,98.00
2019-06-01T08:05:18.320Z,98.00
2019-06-01T08:08:03.626Z,95.30
2019-06-01T08:10:49.398Z,95.60
2019-06-01T08:13:35.959Z,92.50
2019-06-01T08:16:21.435Z,93.70
2019-06-01T08:19:07.260Z,94.60
2019-06-01T08:21:52.460Z,93.60
2019-06-01T08:24:38.060Z,93.80
2019-06-01T08:27:24.399Z,92.30
2019-06-01T08:30:09.566Z,91.80
2019-06-01T08:32:55.651Z,90.70
2019-06-01T08:35:41.221Z,89.00
2019-06-01T08:38:27.460Z,89.70
2019-06-01T08:41:12.996Z,89.40
2019-06-01T08:43:58.257Z,88.10
2019-06-01T08:46:43.822Z,88.70
2019-06-01T08:49:30.674Z,85.00
2019-06-01T08:52:16.896Z,84.00
2019-06-01T08:55:02.231Z,84.10
2019-06-01T08:57:47.535Z,84.50
2019-06-01T09:00:32.979Z,80.90
2019-06-01T09:03:18.023Z,77.70
2019-06-01T09:06:03.682Z,77.90
2019-06-01T09:08:48.950Z,78.10
2019-06-01T09:11:35.359Z,79.00
2019-06-01T09:14:21.250Z,76.70
2019-06-01T09:17:06.655Z,77.30
2019-06-01T09:19:52.319Z,76.00
2019-06-01T09:22:38.012Z,79.90
2019-06-01T09:25:23.431Z,76.50
2019-06-01T09:28:08.547Z,78.40
2019-06-01T09:30:53.806Z,72.40
2019-06-01T09:33:38.890Z,72.40
2019-06-01T09:36:23.966Z,73.50
2019-06-01T09:39:09.183Z,71.60
2019-06-01T09:41:54.942Z,72.70
2019-06-01T09:44:39.731Z,70.80
2019-06-01T09:47:25.178Z,72.70
2019-06-01T09:50:10.868Z,67.90
2019-06-01T09:52:55.802Z,68.00
2019-06-01T09:55:40.754Z,69.80
2019-06-01T09:58:25.638Z,68.60
2019-06-01T10:01:11.127Z,68.20
2019-06-01T10:03:56.165Z,67.30
2019-06-01T10:06:41.959Z,68.00
2019-06-01T10:09:27.211Z,67.40
2019-06-01T10:12:12.698Z,67.80
2019-06-01T10:14:58.046Z,67.20
2019-06-01T10:17:43.953Z,67.30
2019-06-01T10:20:29.128Z,66.30
2019-06-01T10:23:14.189Z,68.00
2019-06-01T10:25:59.208Z,67.10
2019-06-01T10:28:44.826Z,65.60
2019-06-01T10:31:30.506Z,65.50
2019-06-01T10:34:16.013Z,63.30
2019-06-01T10:37:02.178Z,62.80
2019-06-01T10:39:47.436Z,61.80
2019-06-01T10:42:34.025Z,60.20
2019-06-01T10:45:20.019Z,59.70
2019-06-01T10:48:05.606Z,59.70
2019-06-01T10:50:50.828Z,60.20
2019-06-01T10:53:36.401Z,60.80
2019-06-01T10:56:21.586Z,61.00
2019-06-01T10:59:06.782Z,59.30
2019-06-01T11:01:52.187Z,60.40
2019-06-01T11:04:37.260Z,59.40
2019-06-01T11:07:22.869Z,57.90
2019-06-01T11:10:08.568Z,57.40
2019-06-01T11:12:53.742Z,56.50
2019-06-01T11:15:39.258Z,57.20
2019-06-01T11:18:24.644Z,56.10
2019-06-01T11:21:10.034Z,56.20
2019-06-01T11:23:55.535Z,55.70
2019-06-01T11:26:41.955Z,55.90
2019-06-01T11:29:27.462Z,53.90
2019-06-01T11:32:13.094Z,54.40
2019-06-01T11:34:58.858Z,53.00
2019-06-01T11:37:44.560Z,53.50
2019-06-01T11:40:29.483Z,53.10
2019-06-01T11:43:14.966Z,53.30
2019-06-01T11:46:00.244Z,54.50
2019-06-01T11:48:45.640Z,56.30
2019-06-01T11:51:30.919Z,58.10
2019-06-01T11:54:16.863Z,56.50
2019-06-01T11:57:02.176Z,55.00
2019-06-01T11:59:47.416Z,55.60
2019-06-01T12:02:32.878Z,53.80
2019-06-01T12:05:18.454Z,53.20
2019-06-01T12:08:03.667Z,54.60
2019-06-01T12:10:48.638Z,52.60
2019-06-01T12:13:33.705Z,52.90
2019-06-01T12:16:18.887Z,53.30
2019-06-01T12:19:03.701Z,52.50
2019-06-01T12:21:49.494Z,52.30
2019-06-01T12:24:34.614Z,53.90
2019-06-01T12:27:20.049Z,52.30
2019-06-01T12:30:05.126Z,52.70
2019-06-01T12:32:50.427Z,53.40
2019-06-01T12:35:36.111Z,55.80
2019-06-01T12:38:22.606Z,54.80
2019-06-01T12:41:08.178Z,55.60
2019-06-01T12:44:11.206Z,58.40
2019-06-01T12:46:56.730Z,57.20
2019-06-01T12:49:42.251Z,55.70
2019-06-01T12:52:27.719Z,54.80
2019-06-01T12:55:13.145Z,56.50
2019-06-01T12:57:58.449Z,53.50
2019-06-01T13:00:44.210Z,52.50
2019-06-01T13:03:30.183Z,52.60
2019-06-01T13:06:15.278Z,54.10
2019-06-01T13:09:00.432Z,54.20
2019-06-01T13:11:45.687Z,52.90
2019-06-01T13:14:30.685Z,53.60
2019-06-01T13:17:16.035Z,54.30
2019-06-01T13:20:01.451Z,52.10
2019-06-01T13:22:47.715Z,52.30
2019-06-01T13:25:32.828Z,52.00
2019-06-01T13:28:17.635Z,50.90
2019-06-01T13:31:03.092Z,50.70
2019-06-01T13:33:51.756Z,51.50
2019-06-01T13:36:35.460Z,52.00
2019-06-01T13:39:21.038Z,52.00
2019-06-01T13:42:06.204Z,52.90
2019-06-01T13:44:52.092Z,52.00
2019-06-01T13:47:37.207Z,52.20
2019-06-01T13:50:22.382Z,53.30
2019-06-01T13:53:07.471Z,52.00
2019-06-01T13:55:52.879Z,51.30
2019-06-01T13:58:38.474Z,51.70
2019-06-01T14:01:23.859Z,51.40
2019-06-01T14:04:09.583Z,54.10
2019-06-01T14:06:55.502Z,51.00
2019-06-01T14:09:40.947Z,51.00
2019-06-01T14:12:25.802Z,52.20
2019-06-01T14:15:11.385Z,51.10
2019-06-01T14:17:56.870Z,51.80
2019-06-01T14:20:42.224Z,51.60
2019-06-01T14:23:27.589Z,53.40
2019-06-01T14:26:12.443Z,53.40
2019-06-01T14:28:57.558Z,52.70
2019-06-01T14:31:42.868Z,54.10
2019-06-01T14:34:28.090Z,54.00
2019-06-01T14:37:13.222Z,53.80
2019-06-01T14:39:58.806Z,53.30
2019-06-01T14:42:44.177Z,53.20
2019-06-01T14:45:28.887Z,54.50
2019-06-01T14:48:14.144Z,52.90
2019-06-01T14:50:59.115Z,55.20
2019-06-01T14:53:44.158Z,53.50
2019-06-01T14:56:30.003Z,55.50
2019-06-01T14:59:15.578Z,53.90
2019-06-01T15:02:00.919Z,55.20
2019-06-01T15:04:46.557Z,54.20
2019-06-01T15:07:31.691Z,54.50
2019-06-01T15:10:16.900Z,54.30
2019-06-01T15:13:03.453Z,54.30
2019-06-01T15:15:49.491Z,54.10
2019-06-01T15:18:34.526Z,55.00
2019-06-01T15:21:20.290Z,53.30
2019-06-01T15:24:05.606Z,55.90
2019-06-01T15:26:52.406Z,55.90
2019-06-01T15:29:37.518Z,57.60
2019-06-01T15:32:22.390Z,57.20
2019-06-01T15:35:07.657Z,56.90
2019-06-01T15:37:57.159Z,56.80
2019-06-01T15:40:40.142Z,55.80
2019-06-01T15:43:25.578Z,56.60
2019-06-01T15:46:10.885Z,56.50
2019-06-01T15:48:57.681Z,57.80
2019-06-01T15:51:43.781Z,57.20
2019-06-01T15:54:29.658Z,57.40
2019-06-01T15:57:15.338Z,56.40
2019-06-01T16:00:00.761Z,56.50
2019-06-01T16:02:46.036Z,57.70
2019-06-01T16:05:31.463Z,57.10
2019-06-01T16:08:16.598Z,58.90
2019-06-01T16:11:04.636Z,58.80
2019-06-01T16:13:49.410Z,60.70
2019-06-01T16:16:34.717Z,58.60
2019-06-01T16:19:20.254Z,61.60
2019-06-01T16:22:05.198Z,62.30
2019-06-01T16:24:50.197Z,61.30
2019-06-01T16:27:35.193Z,62.50
2019-06-01T16:30:20.615Z,63.90
2019-06-01T16:33:05.809Z,67.00
2019-06-01T16:35:50.914Z,65.80
2019-06-01T16:38:36.219Z,66.40
2019-06-01T16:41:21.385Z,69.10
2019-06-01T16:44:06.534Z,67.30
2019-06-01T16:46:52.330Z,68.30
2019-06-01T16:49:37.345Z,68.50
2019-06-01T16:52:22.886Z,68.10
2019-06-01T16:55:08.077Z,70.20
2019-06-01T16:57:53.718Z,70.90
2019-06-01T17:00:39.192Z,70.20
2019-06-01T17:03:24.463Z,70.40
2019-06-01T17:06:10.034Z,69.90
2019-06-01T17:08:56.643Z,71.70
2019-06-01T17:11:41.986Z,73.30
2019-06-01T17:14:27.074Z,70.30
2019-06-01T17:17:12.397Z,69.80
2019-06-01T17:19:58.940Z,72.70
2019-06-01T17:22:44.383Z,72.00
2019-06-01T17:25:29.498Z,73.00
2019-06-01T17:28:14.860Z,74.00
2019-06-01T17:31:00.154Z,74.30
2019-06-01T17:33:45.491Z,74.70
2019-06-01T17:36:30.465Z,74.30
2019-06-01T17:39:16.112Z,75.10
2019-06-01T17:42:02.464Z,73.80
2019-06-01T17:44:48.117Z,73.40
2019-06-01T17:47:33.146Z,75.00
2019-06-01T17:50:19.094Z,75.40
2019-06-01T17:53:04.710Z,78.90
2019-06-01T17:55:50.308Z,80.10
2019-06-01T17:58:35.978Z,81.00
2019-06-01T18:01:21.255Z,81.90
2019-06-01T18:04:06.198Z,83.80
2019-06-01T18:06:51.262Z,85.60
2019-06-01T18:09:36.829Z,86.50
2019-06-01T18:12:21.819Z,87.50
2019-06-01T18:15:08.024Z,88.80
2019-06-01T18:17:54.099Z,89.60
2019-06-01T18:20:39.677Z,90.40
2019-06-01T18:23:24.579Z,90.90
2019-06-01T18:26:09.486Z,91.30
2019-06-01T18:28:54.861Z,91.50
2019-06-01T18:31:39.826Z,92.30
2019-06-01T18:34:25.815Z,92.50
2019-06-01T18:37:11.695Z,92.80
2019-06-01T18:39:57.047Z,93.30
2019-06-01T18:42:42.061Z,93.50
2019-06-01T18:45:27.191Z,94.10
2019-06-01T18:48:12.625Z,94.10
2019-06-01T18:50:57.926Z,94.50
2019-06-01T18:53:43.036Z,94.90
2019-06-01T18:56:28.622Z,95.70
2019-06-01T18:59:14.662Z,96.00
2019-06-01T19:01:59.443Z,96.30
2019-06-01T19:04:45.098Z,96.70
2019-06-01T19:07:30.608Z,97.20
2019-06-01T19:10:15.791Z,97.50
2019-06-01T19:13:01.426Z,97.70
2019-06-01T19:15:46.654Z,97.80
2019-06-01T19:18:31.750Z,97.80
2019-06-01T19:21:17.186Z,97.90
2019-06-01T19:24:02.495Z,98.30
2019-06-01T19:26:48.270Z,98.40
2019-06-01T19:29:33.668Z,98.40
2019-06-01T19:32:21.228Z,98.70
2019-06-01T19:35:07.400Z,98.90
2019-06-01T19:37:52.734Z,99.30
2019-06-01T19:40:38.531Z,99.70
2019-06-01T19:43:23.886Z,99.90
2019-06-01T19:46:09.753Z,99.90
2019-06-01T19:48:55.042Z,99.90
2019-06-01T19:51:40.814Z,99.90
2019-06-01T19:54:25.553Z,99.90
2019-06-01T19:57:11.809Z,99.90
2019-06-01T19:59:57.546Z,99.90
2019-06-01T20:02:43.124Z,99.90
2019-06-01T20:05:28.490Z,99.90
2019-06-01T20:08:14.302Z,99.90
2019-06-01T20:10:59.646Z,99.90
2019-06-01T20:13:45.323Z,99.90
2019-06-01T20:16:30.796Z,99.90
2019-06-01T20:19:16.051Z,99.90
2019-06-01T20:22:01.814Z,99.90
2019-06-01T20:24:47.223Z,99.90
2019-06-01T20:27:32.327Z,99.90
2019-06-01T20:30:17.826Z,99.90
2019-06-01T20:33:02.817Z,99.90
2019-06-01T20:35:48.191Z,99.90
2019-06-01T20:38:33.282Z,99.90
2019-06-01T20:41:18.696Z,99.90
2019-06-01T20:44:03.874Z,99.90
2019-06-01T20:46:49.476Z,99.90
2019-06-01T20:49:35.250Z,99.90
2019-06-01T20:52:20.947Z,99.90
2019-06-01T20:55:06.511Z,99.90
2019-06-01T20:57:51.983Z,99.90
2019-06-01T21:00:37.659Z,99.90
2019-06-01T21:03:24.192Z,99.90
2019-06-01T21:06:09.902Z,99.90
2019-06-01T21:08:55.615Z,99.90
2019-06-01T21:11:41.100Z,99.90
2019-06-01T21:14:26.168Z,99.90
2019-06-01T21:17:11.342Z,99.90
2019-06-01T21:19:56.436Z,99.90
2019-06-01T21:22:42.375Z,99.90
2019-06-01T21:25:27.633Z,99.90
2019-06-01T21:28:14.906Z,99.90
2019-06-01T21:31:00.033Z,99.90
2019-06-01T21:33:45.285Z,99.90
2019-06-01T21:36:30.757Z,99.90
2019-06-01T21:39:17.527Z,99.90
2019-06-01T21:42:03.045Z,99.90
2019-06-01T21:44:48.726Z,99.90
2019-06-01T21:47:34.103Z,99.90
2019-06-01T21:50:19.945Z,99.90
2019-06-01T21:53:05.418Z,99.90
2019-06-01T21:55:50.677Z,99.90
2019-06-01T21:58:35.882Z,99.90
2019-06-01T22:01:21.158Z,99.90
2019-06-01T22:04:06.311Z,99.90
2019-06-01T22:06:51.371Z,99.90
2019-06-01T22:09:36.406Z,99.90
2019-06-01T22:12:21.513Z,99.90
2019-06-01T22:15:07.141Z,99.90
2019-06-01T22:17:52.771Z,99.90
2019-06-01T22:20:38.018Z,99.90
2019-06-01T22:23:23.881Z,99.90
2019-06-01T22:26:09.060Z,99.90
2019-06-01T22:28:54.371Z,99.90
2019-06-01T22:31:39.826Z,99.90
2019-06-01T22:34:24.907Z,99.90
2019-06-01T22:37:10.570Z,99.90
2019-06-01T22:39:55.828Z,99.90
2019-06-01T22:42:40.876Z,99.90
2019-06-01T22:45:27.096Z,99.90
2019-06-01T22:48:12.978Z,99.90
2019-06-01T22:50:58.559Z,99.90
2019-06-01T22:53:43.828Z,99.90
2019-06-01T22:56:29.448Z,99.90
2019-06-01T22:59:14.578Z,99.90
2019-06-01T23:01:59.932Z,99.90
2019-06-01T23:04:45.819Z,99.90
2019-06-01T23:07:31.348Z,99.90
2019-06-01T23:10:16.993Z,99.90
2019-06-01T23:13:02.096Z,99.90
2019-06-01T23:15:47.422Z,99.90
2019-06-01T23:18:32.755Z,99.90
2019-06-01T23:21:18.797Z,99.90
2019-06-01T23:24:04.035Z,99.90
2019-06-01T23:26:49.099Z,99.90
2019-06-01T23:29:34.091Z,99.90
2019-06-01T23:32:19.862Z,99.90
2019-06-01T23:35:04.654Z,99.90
2019-06-01T23:37:49.969Z,99.90
2019-06-01T23:40:35.034Z,99.90
2019-06-01T23:43:20.202Z,99.90
2019-06-01T23:46:05.118Z,99.90
2019-06-01T23:48:50.199Z,99.90
2019-06-01T23:51:35.151Z,99.90
2019-06-01T23:54:20.527Z,99.90
2019-06-01T23:57:06.345Z,99.90
2019-06-01T23:59:51.815Z,99.90
